sensor_id;sensor_type;location;lat;lon;timestamp;P1;durP1;ratioP1;P2;durP2;ratioP2
7205;SDS011;3644;53.480;10.004;2023-04-25T00:01:05;4.90;;;3.73;;
7205;SDS011;3644;53.480;10.004;2023-04-25T00:03:31;8.37;;;3.53;;
7205;SDS011;3644;53.480;10.004;2023-04-25T00:05:58;8.80;;;3.90;;
7205;SDS011;3644;53.480;10.004;2023-04-25T00:08:27;8.63;;;3.73;;
7205;SDS011;3644;53.480;10.004;2023-04-25T00:10:53;4.23;;;3.43;;
7205;SDS011;3644;53.480;10.004;2023-04-25T00:13:19;9.73;;;4.67;;
7205;SDS011;3644;53.480;10.004;2023-04-25T00:15:45;5.47;;;3.10;;
7205;SDS011;3644;53.480;10.004;2023-04-25T00:18:11;7.90;;;3.63;;
7205;SDS011;3644;53.480;10.004;2023-04-25T00:20:36;5.50;;;2.93;;
7205;SDS011;3644;53.480;10.004;2023-04-25T00:23:02;7.07;;;3.30;;
7205;SDS011;3644;53.480;10.004;2023-04-25T00:25:27;6.73;;;3.60;;
7205;SDS011;3644;53.480;10.004;2023-04-25T00:27:53;8.27;;;3.73;;
7205;SDS011;3644;53.480;10.004;2023-04-25T00:30:19;18.37;;;3.73;;
7205;SDS011;3644;53.480;10.004;2023-04-25T00:32:45;4.60;;;3.17;;
7205;SDS011;3644;53.480;10.004;2023-04-25T00:35:11;7.73;;;3.17;;
7205;SDS011;3644;53.480;10.004;2023-04-25T00:37:36;12.43;;;2.97;;
7205;SDS011;3644;53.480;10.004;2023-04-25T00:40:03;13.40;;;3.70;;
7205;SDS011;3644;53.480;10.004;2023-04-25T00:42:31;11.57;;;3.43;;
7205;SDS011;3644;53.480;10.004;2023-04-25T00:44:57;16.03;;;3.90;;
7205;SDS011;3644;53.480;10.004;2023-04-25T00:47:24;11.37;;;3.60;;
7205;SDS011;3644;53.480;10.004;2023-04-25T00:49:50;22.57;;;4.57;;
7205;SDS011;3644;53.480;10.004;2023-04-25T00:52:16;28.57;;;4.30;;
7205;SDS011;3644;53.480;10.004;2023-04-25T00:54:41;10.73;;;3.53;;
7205;SDS011;3644;53.480;10.004;2023-04-25T00:57:07;11.93;;;3.47;;
7205;SDS011;3644;53.480;10.004;2023-04-25T00:59:33;12.97;;;3.57;;
7205;SDS011;3644;53.480;10.004;2023-04-25T01:01:59;11.53;;;4.33;;
7205;SDS011;3644;53.480;10.004;2023-04-25T01:04:25;17.40;;;3.87;;
7205;SDS011;3644;53.480;10.004;2023-04-25T01:06:52;15.07;;;3.70;;
7205;SDS011;3644;53.480;10.004;2023-04-25T01:09:18;10.80;;;3.60;;
7205;SDS011;3644;53.480;10.004;2023-04-25T01:11:45;11.50;;;3.97;;
7205;SDS011;3644;53.480;10.004;2023-04-25T01:14:10;15.63;;;4.20;;
7205;SDS011;3644;53.480;10.004;2023-04-25T01:16:36;19.30;;;4.70;;
7205;SDS011;3644;53.480;10.004;2023-04-25T01:19:03;17.40;;;3.83;;
7205;SDS011;3644;53.480;10.004;2023-04-25T01:21:34;20.07;;;4.23;;
7205;SDS011;3644;53.480;10.004;2023-04-25T01:23:59;12.20;;;3.23;;
7205;SDS011;3644;53.480;10.004;2023-04-25T01:26:25;25.67;;;4.37;;
7205;SDS011;3644;53.480;10.004;2023-04-25T01:28:51;20.07;;;4.10;;
7205;SDS011;3644;53.480;10.004;2023-04-25T01:31:17;28.30;;;4.77;;
7205;SDS011;3644;53.480;10.004;2023-04-25T01:33:44;17.93;;;5.20;;
7205;SDS011;3644;53.480;10.004;2023-04-25T01:36:10;13.00;;;3.03;;
7205;SDS011;3644;53.480;10.004;2023-04-25T01:38:36;21.63;;;4.40;;
7205;SDS011;3644;53.480;10.004;2023-04-25T01:41:01;21.23;;;4.47;;
7205;SDS011;3644;53.480;10.004;2023-04-25T01:43:27;14.23;;;5.00;;
7205;SDS011;3644;53.480;10.004;2023-04-25T01:45:52;16.40;;;4.00;;
7205;SDS011;3644;53.480;10.004;2023-04-25T01:48:18;13.07;;;3.77;;
7205;SDS011;3644;53.480;10.004;2023-04-25T01:50:44;18.50;;;5.23;;
7205;SDS011;3644;53.480;10.004;2023-04-25T01:53:10;13.60;;;4.70;;
7205;SDS011;3644;53.480;10.004;2023-04-25T01:55:38;33.20;;;6.20;;
7205;SDS011;3644;53.480;10.004;2023-04-25T01:58:04;17.43;;;4.00;;
7205;SDS011;3644;53.480;10.004;2023-04-25T02:00:34;17.80;;;3.60;;
7205;SDS011;3644;53.480;10.004;2023-04-25T02:03:00;17.47;;;4.50;;
7205;SDS011;3644;53.480;10.004;2023-04-25T02:05:25;21.30;;;4.40;;
7205;SDS011;3644;53.480;10.004;2023-04-25T02:07:51;26.97;;;5.50;;
7205;SDS011;3644;53.480;10.004;2023-04-25T02:10:16;26.90;;;4.70;;
7205;SDS011;3644;53.480;10.004;2023-04-25T02:12:42;21.33;;;4.30;;
7205;SDS011;3644;53.480;10.004;2023-04-25T02:15:07;15.00;;;3.90;;
7205;SDS011;3644;53.480;10.004;2023-04-25T02:17:33;16.53;;;3.80;;
7205;SDS011;3644;53.480;10.004;2023-04-25T02:19:58;19.03;;;4.77;;
7205;SDS011;3644;53.480;10.004;2023-04-25T02:22:24;27.97;;;3.83;;
7205;SDS011;3644;53.480;10.004;2023-04-25T02:24:51;24.17;;;3.80;;
7205;SDS011;3644;53.480;10.004;2023-04-25T02:27:17;28.03;;;5.00;;
7205;SDS011;3644;53.480;10.004;2023-04-25T02:29:43;15.93;;;4.57;;
7205;SDS011;3644;53.480;10.004;2023-04-25T02:32:08;13.17;;;4.23;;
7205;SDS011;3644;53.480;10.004;2023-04-25T02:34:34;16.30;;;3.77;;
7205;SDS011;3644;53.480;10.004;2023-04-25T02:37:00;34.10;;;6.33;;
7205;SDS011;3644;53.480;10.004;2023-04-25T02:39:25;25.27;;;5.10;;
7205;SDS011;3644;53.480;10.004;2023-04-25T02:41:52;27.27;;;4.10;;
7205;SDS011;3644;53.480;10.004;2023-04-25T02:44:17;38.67;;;6.93;;
7205;SDS011;3644;53.480;10.004;2023-04-25T02:46:43;21.33;;;4.13;;
7205;SDS011;3644;53.480;10.004;2023-04-25T02:49:08;11.50;;;3.70;;
7205;SDS011;3644;53.480;10.004;2023-04-25T02:51:34;28.30;;;5.03;;
7205;SDS011;3644;53.480;10.004;2023-04-25T02:54:00;15.20;;;4.40;;
7205;SDS011;3644;53.480;10.004;2023-04-25T02:56:25;21.70;;;4.83;;
7205;SDS011;3644;53.480;10.004;2023-04-25T02:58:52;14.30;;;3.80;;
7205;SDS011;3644;53.480;10.004;2023-04-25T03:01:17;21.13;;;3.40;;
7205;SDS011;3644;53.480;10.004;2023-04-25T03:03:43;14.03;;;3.87;;
7205;SDS011;3644;53.480;10.004;2023-04-25T03:06:08;12.80;;;3.50;;
7205;SDS011;3644;53.480;10.004;2023-04-25T03:08:34;26.37;;;4.70;;
7205;SDS011;3644;53.480;10.004;2023-04-25T03:11:00;17.60;;;3.77;;
7205;SDS011;3644;53.480;10.004;2023-04-25T03:13:25;14.27;;;3.40;;
7205;SDS011;3644;53.480;10.004;2023-04-25T03:15:52;32.90;;;5.30;;
7205;SDS011;3644;53.480;10.004;2023-04-25T03:18:17;8.70;;;3.90;;
7205;SDS011;3644;53.480;10.004;2023-04-25T03:20:43;21.40;;;4.20;;
7205;SDS011;3644;53.480;10.004;2023-04-25T03:23:09;25.20;;;5.07;;
7205;SDS011;3644;53.480;10.004;2023-04-25T03:25:34;16.57;;;4.07;;
7205;SDS011;3644;53.480;10.004;2023-04-25T03:28:00;14.57;;;3.70;;
7205;SDS011;3644;53.480;10.004;2023-04-25T03:30:25;12.47;;;3.40;;
7205;SDS011;3644;53.480;10.004;2023-04-25T03:32:51;27.80;;;5.53;;
7205;SDS011;3644;53.480;10.004;2023-04-25T03:35:16;20.90;;;3.90;;
7205;SDS011;3644;53.480;10.004;2023-04-25T03:37:42;20.23;;;4.00;;
7205;SDS011;3644;53.480;10.004;2023-04-25T03:40:10;11.80;;;4.17;;
7205;SDS011;3644;53.480;10.004;2023-04-25T03:42:36;7.70;;;3.00;;
7205;SDS011;3644;53.480;10.004;2023-04-25T03:45:01;18.80;;;3.53;;
7205;SDS011;3644;53.480;10.004;2023-04-25T03:47:27;15.50;;;4.00;;
7205;SDS011;3644;53.480;10.004;2023-04-25T03:49:53;18.13;;;5.30;;
7205;SDS011;3644;53.480;10.004;2023-04-25T03:52:18;13.37;;;4.07;;
7205;SDS011;3644;53.480;10.004;2023-04-25T03:54:44;16.43;;;3.93;;
7205;SDS011;3644;53.480;10.004;2023-04-25T03:57:09;10.37;;;3.63;;
7205;SDS011;3644;53.480;10.004;2023-04-25T03:59:35;34.60;;;4.33;;
7205;SDS011;3644;53.480;10.004;2023-04-25T04:02:00;25.10;;;5.67;;
7205;SDS011;3644;53.480;10.004;2023-04-25T04:04:26;13.70;;;3.60;;
7205;SDS011;3644;53.480;10.004;2023-04-25T04:06:51;18.53;;;3.87;;
7205;SDS011;3644;53.480;10.004;2023-04-25T04:09:17;25.27;;;4.00;;
7205;SDS011;3644;53.480;10.004;2023-04-25T04:11:44;16.20;;;3.80;;
7205;SDS011;3644;53.480;10.004;2023-04-25T04:14:10;23.93;;;4.50;;
7205;SDS011;3644;53.480;10.004;2023-04-25T04:16:35;21.93;;;2.97;;
7205;SDS011;3644;53.480;10.004;2023-04-25T04:19:01;17.03;;;3.47;;
7205;SDS011;3644;53.480;10.004;2023-04-25T04:21:27;16.53;;;4.20;;
7205;SDS011;3644;53.480;10.004;2023-04-25T04:23:52;13.03;;;5.40;;
7205;SDS011;3644;53.480;10.004;2023-04-25T04:26:19;12.20;;;3.60;;
7205;SDS011;3644;53.480;10.004;2023-04-25T04:28:48;17.90;;;5.37;;
7205;SDS011;3644;53.480;10.004;2023-04-25T04:31:15;21.53;;;4.03;;
7205;SDS011;3644;53.480;10.004;2023-04-25T04:33:41;16.50;;;4.20;;
7205;SDS011;3644;53.480;10.004;2023-04-25T04:36:07;23.60;;;3.33;;
7205;SDS011;3644;53.480;10.004;2023-04-25T04:38:33;14.40;;;3.50;;
7205;SDS011;3644;53.480;10.004;2023-04-25T04:40:58;15.50;;;4.10;;
7205;SDS011;3644;53.480;10.004;2023-04-25T04:43:24;18.83;;;4.90;;
7205;SDS011;3644;53.480;10.004;2023-04-25T04:45:49;16.97;;;4.00;;
7205;SDS011;3644;53.480;10.004;2023-04-25T04:48:15;18.33;;;3.70;;
7205;SDS011;3644;53.480;10.004;2023-04-25T04:50:42;15.03;;;3.70;;
7205;SDS011;3644;53.480;10.004;2023-04-25T04:53:10;13.93;;;4.30;;
7205;SDS011;3644;53.480;10.004;2023-04-25T04:55:36;17.43;;;3.50;;
7205;SDS011;3644;53.480;10.004;2023-04-25T04:58:01;15.20;;;3.40;;
7205;SDS011;3644;53.480;10.004;2023-04-25T05:00:27;13.37;;;3.60;;
7205;SDS011;3644;53.480;10.004;2023-04-25T05:02:54;24.00;;;4.10;;
7205;SDS011;3644;53.480;10.004;2023-04-25T05:05:20;13.20;;;4.13;;
7205;SDS011;3644;53.480;10.004;2023-04-25T05:07:45;10.53;;;3.17;;
7205;SDS011;3644;53.480;10.004;2023-04-25T05:10:11;16.20;;;4.23;;
7205;SDS011;3644;53.480;10.004;2023-04-25T05:12:36;11.10;;;3.80;;
7205;SDS011;3644;53.480;10.004;2023-04-25T05:15:02;16.87;;;2.97;;
7205;SDS011;3644;53.480;10.004;2023-04-25T05:17:28;34.33;;;4.47;;
7205;SDS011;3644;53.480;10.004;2023-04-25T05:19:53;10.10;;;2.67;;
7205;SDS011;3644;53.480;10.004;2023-04-25T05:22:18;12.20;;;4.50;;
7205;SDS011;3644;53.480;10.004;2023-04-25T05:24:44;21.70;;;4.10;;
7205;SDS011;3644;53.480;10.004;2023-04-25T05:27:10;15.63;;;2.87;;
7205;SDS011;3644;53.480;10.004;2023-04-25T05:29:35;12.23;;;4.23;;
7205;SDS011;3644;53.480;10.004;2023-04-25T05:32:01;20.03;;;3.73;;
7205;SDS011;3644;53.480;10.004;2023-04-25T05:34:27;21.20;;;3.30;;
7205;SDS011;3644;53.480;10.004;2023-04-25T05:36:52;14.30;;;3.90;;
7205;SDS011;3644;53.480;10.004;2023-04-25T05:39:17;23.40;;;4.33;;
7205;SDS011;3644;53.480;10.004;2023-04-25T05:41:43;15.80;;;3.90;;
7205;SDS011;3644;53.480;10.004;2023-04-25T05:44:09;10.77;;;3.80;;
7205;SDS011;3644;53.480;10.004;2023-04-25T05:46:34;19.37;;;3.30;;
7205;SDS011;3644;53.480;10.004;2023-04-25T05:49:00;20.90;;;4.53;;
7205;SDS011;3644;53.480;10.004;2023-04-25T05:51:25;10.53;;;3.13;;
7205;SDS011;3644;53.480;10.004;2023-04-25T05:53:52;15.47;;;2.83;;
7205;SDS011;3644;53.480;10.004;2023-04-25T05:56:18;8.43;;;2.77;;
7205;SDS011;3644;53.480;10.004;2023-04-25T05:58:43;15.40;;;3.03;;
7205;SDS011;3644;53.480;10.004;2023-04-25T06:01:09;17.10;;;3.03;;
7205;SDS011;3644;53.480;10.004;2023-04-25T06:03:34;6.83;;;2.53;;
7205;SDS011;3644;53.480;10.004;2023-04-25T06:06:00;9.70;;;2.70;;
7205;SDS011;3644;53.480;10.004;2023-04-25T06:08:25;11.17;;;2.30;;
7205;SDS011;3644;53.480;10.004;2023-04-25T06:10:51;19.90;;;2.97;;
7205;SDS011;3644;53.480;10.004;2023-04-25T06:13:17;16.47;;;3.40;;
7205;SDS011;3644;53.480;10.004;2023-04-25T06:15:42;9.57;;;3.03;;
7205;SDS011;3644;53.480;10.004;2023-04-25T06:18:08;27.73;;;3.37;;
7205;SDS011;3644;53.480;10.004;2023-04-25T06:20:33;19.47;;;3.83;;
7205;SDS011;3644;53.480;10.004;2023-04-25T06:22:59;11.60;;;2.80;;
7205;SDS011;3644;53.480;10.004;2023-04-25T06:25:24;8.87;;;2.43;;
7205;SDS011;3644;53.480;10.004;2023-04-25T06:27:50;5.73;;;2.77;;
7205;SDS011;3644;53.480;10.004;2023-04-25T06:30:15;14.63;;;2.63;;
7205;SDS011;3644;53.480;10.004;2023-04-25T06:32:43;11.33;;;2.50;;
7205;SDS011;3644;53.480;10.004;2023-04-25T06:35:08;12.77;;;3.03;;
7205;SDS011;3644;53.480;10.004;2023-04-25T06:37:35;15.27;;;2.60;;
7205;SDS011;3644;53.480;10.004;2023-04-25T06:40:00;14.10;;;2.87;;
7205;SDS011;3644;53.480;10.004;2023-04-25T06:42:26;21.10;;;3.60;;
7205;SDS011;3644;53.480;10.004;2023-04-25T06:44:51;12.93;;;3.37;;
7205;SDS011;3644;53.480;10.004;2023-04-25T06:47:17;9.20;;;2.80;;
7205;SDS011;3644;53.480;10.004;2023-04-25T06:49:42;12.17;;;3.33;;
7205;SDS011;3644;53.480;10.004;2023-04-25T06:52:08;10.70;;;3.10;;
7205;SDS011;3644;53.480;10.004;2023-04-25T06:54:33;13.53;;;2.40;;
7205;SDS011;3644;53.480;10.004;2023-04-25T06:57:02;24.60;;;4.00;;
7205;SDS011;3644;53.480;10.004;2023-04-25T06:59:27;13.20;;;3.63;;
7205;SDS011;3644;53.480;10.004;2023-04-25T07:01:53;8.63;;;2.10;;
7205;SDS011;3644;53.480;10.004;2023-04-25T07:04:18;7.10;;;2.53;;
7205;SDS011;3644;53.480;10.004;2023-04-25T07:06:44;10.90;;;2.40;;
7205;SDS011;3644;53.480;10.004;2023-04-25T07:09:11;18.60;;;2.90;;
7205;SDS011;3644;53.480;10.004;2023-04-25T07:11:37;10.50;;;3.70;;
7205;SDS011;3644;53.480;10.004;2023-04-25T07:14:03;13.80;;;3.23;;
7205;SDS011;3644;53.480;10.004;2023-04-25T07:16:28;11.73;;;2.83;;
7205;SDS011;3644;53.480;10.004;2023-04-25T07:18:54;20.27;;;3.30;;
7205;SDS011;3644;53.480;10.004;2023-04-25T07:21:20;10.63;;;2.57;;
7205;SDS011;3644;53.480;10.004;2023-04-25T07:23:45;9.73;;;2.80;;
7205;SDS011;3644;53.480;10.004;2023-04-25T07:26:11;13.83;;;3.23;;
7205;SDS011;3644;53.480;10.004;2023-04-25T07:28:37;7.40;;;2.20;;
7205;SDS011;3644;53.480;10.004;2023-04-25T07:31:02;10.37;;;2.40;;
7205;SDS011;3644;53.480;10.004;2023-04-25T07:33:28;8.33;;;3.23;;
7205;SDS011;3644;53.480;10.004;2023-04-25T07:35:54;10.53;;;3.80;;
7205;SDS011;3644;53.480;10.004;2023-04-25T07:38:20;14.27;;;3.30;;
7205;SDS011;3644;53.480;10.004;2023-04-25T07:40:47;10.13;;;2.03;;
7205;SDS011;3644;53.480;10.004;2023-04-25T07:43:13;12.40;;;2.80;;
7205;SDS011;3644;53.480;10.004;2023-04-25T07:45:41;16.63;;;4.10;;
7205;SDS011;3644;53.480;10.004;2023-04-25T07:48:07;9.40;;;2.83;;
7205;SDS011;3644;53.480;10.004;2023-04-25T07:50:33;20.97;;;3.13;;
7205;SDS011;3644;53.480;10.004;2023-04-25T07:52:58;10.40;;;3.80;;
7205;SDS011;3644;53.480;10.004;2023-04-25T07:55:24;4.83;;;2.40;;
7205;SDS011;3644;53.480;10.004;2023-04-25T07:57:49;7.83;;;3.07;;
7205;SDS011;3644;53.480;10.004;2023-04-25T08:00:15;8.67;;;2.83;;
7205;SDS011;3644;53.480;10.004;2023-04-25T08:02:40;9.80;;;2.00;;
7205;SDS011;3644;53.480;10.004;2023-04-25T08:05:06;4.47;;;1.53;;
7205;SDS011;3644;53.480;10.004;2023-04-25T08:07:33;11.03;;;2.90;;
7205;SDS011;3644;53.480;10.004;2023-04-25T08:09:59;5.10;;;1.50;;
7205;SDS011;3644;53.480;10.004;2023-04-25T08:12:24;3.53;;;1.33;;
7205;SDS011;3644;53.480;10.004;2023-04-25T08:14:50;7.27;;;2.17;;
7205;SDS011;3644;53.480;10.004;2023-04-25T08:17:15;6.90;;;1.70;;
7205;SDS011;3644;53.480;10.004;2023-04-25T08:19:41;19.10;;;2.30;;
7205;SDS011;3644;53.480;10.004;2023-04-25T08:22:07;14.63;;;2.63;;
7205;SDS011;3644;53.480;10.004;2023-04-25T08:24:32;7.67;;;1.80;;
7205;SDS011;3644;53.480;10.004;2023-04-25T08:26:58;18.03;;;2.23;;
7205;SDS011;3644;53.480;10.004;2023-04-25T08:29:23;5.57;;;1.80;;
7205;SDS011;3644;53.480;10.004;2023-04-25T08:31:50;9.07;;;1.77;;
7205;SDS011;3644;53.480;10.004;2023-04-25T08:34:17;9.83;;;2.30;;
7205;SDS011;3644;53.480;10.004;2023-04-25T08:36:43;8.90;;;2.00;;
7205;SDS011;3644;53.480;10.004;2023-04-25T08:39:09;9.40;;;2.77;;
7205;SDS011;3644;53.480;10.004;2023-04-25T08:41:36;4.57;;;2.40;;
7205;SDS011;3644;53.480;10.004;2023-04-25T08:44:02;5.37;;;1.70;;
7205;SDS011;3644;53.480;10.004;2023-04-25T08:46:30;10.20;;;2.30;;
7205;SDS011;3644;53.480;10.004;2023-04-25T08:48:57;10.80;;;2.05;;
7205;SDS011;3644;53.480;10.004;2023-04-25T08:51:25;5.80;;;1.63;;
7205;SDS011;3644;53.480;10.004;2023-04-25T08:53:54;11.30;;;2.70;;
7205;SDS011;3644;53.480;10.004;2023-04-25T08:56:21;12.10;;;2.33;;
7205;SDS011;3644;53.480;10.004;2023-04-25T08:58:48;5.87;;;1.53;;
7205;SDS011;3644;53.480;10.004;2023-04-25T09:01:15;8.23;;;2.73;;
7205;SDS011;3644;53.480;10.004;2023-04-25T09:03:41;4.63;;;1.77;;
7205;SDS011;3644;53.480;10.004;2023-04-25T09:06:09;4.83;;;1.57;;
7205;SDS011;3644;53.480;10.004;2023-04-25T09:08:36;6.33;;;1.63;;
7205;SDS011;3644;53.480;10.004;2023-04-25T09:11:02;5.03;;;1.37;;
7205;SDS011;3644;53.480;10.004;2023-04-25T09:13:28;7.43;;;1.50;;
7205;SDS011;3644;53.480;10.004;2023-04-25T09:15:55;8.37;;;1.37;;
7205;SDS011;3644;53.480;10.004;2023-04-25T09:18:26;7.93;;;1.70;;
7205;SDS011;3644;53.480;10.004;2023-04-25T09:20:56;2.30;;;1.17;;
7205;SDS011;3644;53.480;10.004;2023-04-25T09:23:29;5.43;;;1.40;;
7205;SDS011;3644;53.480;10.004;2023-04-25T09:25:55;7.60;;;2.30;;
7205;SDS011;3644;53.480;10.004;2023-04-25T09:28:26;4.50;;;1.70;;
7205;SDS011;3644;53.480;10.004;2023-04-25T09:30:56;4.07;;;1.83;;
7205;SDS011;3644;53.480;10.004;2023-04-25T09:33:28;2.63;;;1.57;;
7205;SDS011;3644;53.480;10.004;2023-04-25T09:36:01;4.57;;;1.37;;
7205;SDS011;3644;53.480;10.004;2023-04-25T09:38:29;9.30;;;1.40;;
7205;SDS011;3644;53.480;10.004;2023-04-25T09:41:06;4.00;;;1.60;;
7205;SDS011;3644;53.480;10.004;2023-04-25T09:43:32;9.70;;;2.60;;
7205;SDS011;3644;53.480;10.004;2023-04-25T09:45:57;5.17;;;1.77;;
7205;SDS011;3644;53.480;10.004;2023-04-25T09:48:25;6.97;;;1.77;;
7205;SDS011;3644;53.480;10.004;2023-04-25T09:53:39;7.33;;;2.30;;
7205;SDS011;3644;53.480;10.004;2023-04-25T09:56:06;6.27;;;2.07;;
7205;SDS011;3644;53.480;10.004;2023-04-25T09:58:34;3.27;;;1.60;;
7205;SDS011;3644;53.480;10.004;2023-04-25T10:01:01;8.30;;;1.60;;
7205;SDS011;3644;53.480;10.004;2023-04-25T10:03:31;3.80;;;1.27;;
7205;SDS011;3644;53.480;10.004;2023-04-25T10:06:02;6.53;;;1.40;;
7205;SDS011;3644;53.480;10.004;2023-04-25T10:08:36;5.80;;;1.93;;
7205;SDS011;3644;53.480;10.004;2023-04-25T10:11:03;3.97;;;1.73;;
7205;SDS011;3644;53.480;10.004;2023-04-25T10:13:30;9.83;;;1.77;;
7205;SDS011;3644;53.480;10.004;2023-04-25T10:15:57;20.57;;;3.17;;
7205;SDS011;3644;53.480;10.004;2023-04-25T10:18:24;5.23;;;2.27;;
7205;SDS011;3644;53.480;10.004;2023-04-25T10:20:50;4.30;;;2.40;;
7205;SDS011;3644;53.480;10.004;2023-04-25T10:23:16;8.80;;;2.00;;
7205;SDS011;3644;53.480;10.004;2023-04-25T10:25:42;7.40;;;2.30;;
7205;SDS011;3644;53.480;10.004;2023-04-25T10:28:08;5.87;;;2.33;;
7205;SDS011;3644;53.480;10.004;2023-04-25T10:30:34;8.17;;;2.10;;
7205;SDS011;3644;53.480;10.004;2023-04-25T10:32:59;8.20;;;2.50;;
7205;SDS011;3644;53.480;10.004;2023-04-25T10:35:26;7.53;;;1.77;;
7205;SDS011;3644;53.480;10.004;2023-04-25T10:37:56;7.50;;;2.23;;
7205;SDS011;3644;53.480;10.004;2023-04-25T10:40:22;16.43;;;2.20;;
7205;SDS011;3644;53.480;10.004;2023-04-25T10:42:48;9.30;;;1.90;;
7205;SDS011;3644;53.480;10.004;2023-04-25T10:45:13;3.30;;;1.70;;
7205;SDS011;3644;53.480;10.004;2023-04-25T10:47:46;5.60;;;1.70;;
7205;SDS011;3644;53.480;10.004;2023-04-25T10:50:11;2.67;;;1.53;;
7205;SDS011;3644;53.480;10.004;2023-04-25T10:52:40;3.13;;;1.47;;
7205;SDS011;3644;53.480;10.004;2023-04-25T10:55:06;3.43;;;1.10;;
7205;SDS011;3644;53.480;10.004;2023-04-25T10:57:35;5.37;;;1.70;;
7205;SDS011;3644;53.480;10.004;2023-04-25T11:00:12;2.40;;;1.57;;
7205;SDS011;3644;53.480;10.004;2023-04-25T11:05:22;6.17;;;2.10;;
7205;SDS011;3644;53.480;10.004;2023-04-25T11:07:52;2.73;;;1.30;;
7205;SDS011;3644;53.480;10.004;2023-04-25T11:10:29;13.33;;;2.23;;
7205;SDS011;3644;53.480;10.004;2023-04-25T11:12:56;2.33;;;1.67;;
7205;SDS011;3644;53.480;10.004;2023-04-25T11:15:25;4.87;;;2.43;;
7205;SDS011;3644;53.480;10.004;2023-04-25T11:17:51;5.93;;;1.73;;
7205;SDS011;3644;53.480;10.004;2023-04-25T11:20:17;9.20;;;2.13;;
7205;SDS011;3644;53.480;10.004;2023-04-25T11:22:44;5.60;;;1.33;;
7205;SDS011;3644;53.480;10.004;2023-04-25T11:25:11;8.83;;;2.00;;
7205;SDS011;3644;53.480;10.004;2023-04-25T11:27:38;4.13;;;2.13;;
7205;SDS011;3644;53.480;10.004;2023-04-25T11:30:26;3.70;;;1.60;;
7205;SDS011;3644;53.480;10.004;2023-04-25T11:32:53;3.23;;;1.20;;
7205;SDS011;3644;53.480;10.004;2023-04-25T11:35:19;10.67;;;1.67;;
7205;SDS011;3644;53.480;10.004;2023-04-25T11:37:47;8.83;;;1.77;;
7205;SDS011;3644;53.480;10.004;2023-04-25T11:40:13;6.27;;;1.77;;
7205;SDS011;3644;53.480;10.004;2023-04-25T11:42:39;2.80;;;1.30;;
7205;SDS011;3644;53.480;10.004;2023-04-25T11:45:09;5.37;;;1.23;;
7205;SDS011;3644;53.480;10.004;2023-04-25T11:47:35;3.50;;;1.00;;
7205;SDS011;3644;53.480;10.004;2023-04-25T11:50:02;1.37;;;0.97;;
7205;SDS011;3644;53.480;10.004;2023-04-25T11:55:21;4.60;;;1.10;;
7205;SDS011;3644;53.480;10.004;2023-04-25T11:57:47;2.10;;;1.07;;
7205;SDS011;3644;53.480;10.004;2023-04-25T12:00:16;5.77;;;1.10;;
7205;SDS011;3644;53.480;10.004;2023-04-25T12:02:45;4.30;;;2.43;;
7205;SDS011;3644;53.480;10.004;2023-04-25T12:05:16;8.43;;;1.83;;
7205;SDS011;3644;53.480;10.004;2023-04-25T12:07:41;2.90;;;1.73;;
7205;SDS011;3644;53.480;10.004;2023-04-25T12:10:11;5.60;;;1.73;;
7205;SDS011;3644;53.480;10.004;2023-04-25T12:12:38;11.30;;;2.00;;
7205;SDS011;3644;53.480;10.004;2023-04-25T12:17:40;9.33;;;1.93;;
7205;SDS011;3644;53.480;10.004;2023-04-25T12:20:07;6.97;;;1.90;;
7205;SDS011;3644;53.480;10.004;2023-04-25T12:22:45;5.63;;;1.43;;
7205;SDS011;3644;53.480;10.004;2023-04-25T12:25:57;3.93;;;1.10;;
7205;SDS011;3644;53.480;10.004;2023-04-25T12:33:20;4.93;;;1.50;;
7205;SDS011;3644;53.480;10.004;2023-04-25T12:35:46;5.40;;;1.50;;
7205;SDS011;3644;53.480;10.004;2023-04-25T12:38:20;5.30;;;1.67;;
7205;SDS011;3644;53.480;10.004;2023-04-25T12:40:50;7.80;;;1.60;;
7205;SDS011;3644;53.480;10.004;2023-04-25T12:43:16;4.73;;;1.30;;
7205;SDS011;3644;53.480;10.004;2023-04-25T12:45:42;5.23;;;1.30;;
7205;SDS011;3644;53.480;10.004;2023-04-25T12:48:07;5.20;;;1.60;;
7205;SDS011;3644;53.480;10.004;2023-04-25T12:50:33;7.53;;;5.00;;
7205;SDS011;3644;53.480;10.004;2023-04-25T12:52:58;3.67;;;1.80;;
7205;SDS011;3644;53.480;10.004;2023-04-25T12:55:24;2.60;;;1.70;;
7205;SDS011;3644;53.480;10.004;2023-04-25T12:57:51;6.13;;;1.80;;
7205;SDS011;3644;53.480;10.004;2023-04-25T13:00:17;5.40;;;1.60;;
7205;SDS011;3644;53.480;10.004;2023-04-25T13:02:44;6.97;;;2.10;;
7205;SDS011;3644;53.480;10.004;2023-04-25T13:05:11;8.63;;;2.10;;
7205;SDS011;3644;53.480;10.004;2023-04-25T13:07:37;10.13;;;2.20;;
7205;SDS011;3644;53.480;10.004;2023-04-25T13:10:06;9.03;;;1.20;;
7205;SDS011;3644;53.480;10.004;2023-04-25T13:12:32;8.30;;;2.20;;
7205;SDS011;3644;53.480;10.004;2023-04-25T13:14:58;3.97;;;1.90;;
7205;SDS011;3644;53.480;10.004;2023-04-25T13:17:23;6.00;;;1.37;;
7205;SDS011;3644;53.480;10.004;2023-04-25T13:19:49;6.83;;;1.63;;
7205;SDS011;3644;53.480;10.004;2023-04-25T13:22:14;4.40;;;1.50;;
7205;SDS011;3644;53.480;10.004;2023-04-25T13:24:41;7.63;;;1.73;;
7205;SDS011;3644;53.480;10.004;2023-04-25T13:27:07;5.30;;;2.00;;
7205;SDS011;3644;53.480;10.004;2023-04-25T13:29:33;8.33;;;2.17;;
7205;SDS011;3644;53.480;10.004;2023-04-25T13:32:00;8.27;;;1.50;;
7205;SDS011;3644;53.480;10.004;2023-04-25T13:34:26;5.73;;;1.83;;
7205;SDS011;3644;53.480;10.004;2023-04-25T13:36:53;11.03;;;1.57;;
7205;SDS011;3644;53.480;10.004;2023-04-25T13:39:18;2.97;;;1.37;;
7205;SDS011;3644;53.480;10.004;2023-04-25T13:41:44;7.20;;;2.17;;
7205;SDS011;3644;53.480;10.004;2023-04-25T13:44:09;7.47;;;1.70;;
7205;SDS011;3644;53.480;10.004;2023-04-25T13:46:35;8.20;;;4.10;;
7205;SDS011;3644;53.480;10.004;2023-04-25T13:49:02;8.13;;;3.03;;
7205;SDS011;3644;53.480;10.004;2023-04-25T13:51:28;8.63;;;2.67;;
7205;SDS011;3644;53.480;10.004;2023-04-25T13:53:53;11.47;;;3.57;;
7205;SDS011;3644;53.480;10.004;2023-04-25T13:56:19;3.80;;;2.23;;
7205;SDS011;3644;53.480;10.004;2023-04-25T13:58:45;5.90;;;1.60;;
7205;SDS011;3644;53.480;10.004;2023-04-25T14:01:11;2.37;;;1.17;;
7205;SDS011;3644;53.480;10.004;2023-04-25T14:03:36;8.13;;;2.20;;
7205;SDS011;3644;53.480;10.004;2023-04-25T14:06:02;10.03;;;1.50;;
7205;SDS011;3644;53.480;10.004;2023-04-25T14:08:27;2.80;;;1.20;;
7205;SDS011;3644;53.480;10.004;2023-04-25T14:10:53;4.07;;;1.57;;
7205;SDS011;3644;53.480;10.004;2023-04-25T14:13:19;16.17;;;1.17;;
7205;SDS011;3644;53.480;10.004;2023-04-25T14:15:45;5.43;;;2.33;;
7205;SDS011;3644;53.480;10.004;2023-04-25T14:18:11;11.70;;;1.67;;
7205;SDS011;3644;53.480;10.004;2023-04-25T14:20:36;8.57;;;1.73;;
7205;SDS011;3644;53.480;10.004;2023-04-25T14:23:02;12.47;;;2.10;;
7205;SDS011;3644;53.480;10.004;2023-04-25T14:25:27;8.50;;;1.97;;
7205;SDS011;3644;53.480;10.004;2023-04-25T14:27:54;5.30;;;1.93;;
7205;SDS011;3644;53.480;10.004;2023-04-25T14:30:20;8.30;;;1.93;;
7205;SDS011;3644;53.480;10.004;2023-04-25T14:32:48;7.83;;;3.30;;
7205;SDS011;3644;53.480;10.004;2023-04-25T14:35:14;5.80;;;2.10;;
7205;SDS011;3644;53.480;10.004;2023-04-25T14:37:40;11.20;;;3.30;;
7205;SDS011;3644;53.480;10.004;2023-04-25T14:40:06;14.33;;;2.17;;
7205;SDS011;3644;53.480;10.004;2023-04-25T14:42:35;8.80;;;2.27;;
7205;SDS011;3644;53.480;10.004;2023-04-25T14:45:01;6.20;;;2.50;;
7205;SDS011;3644;53.480;10.004;2023-04-25T14:47:27;5.53;;;2.03;;
7205;SDS011;3644;53.480;10.004;2023-04-25T14:49:53;3.97;;;2.10;;
7205;SDS011;3644;53.480;10.004;2023-04-25T14:52:19;5.83;;;2.20;;
7205;SDS011;3644;53.480;10.004;2023-04-25T14:54:45;6.70;;;2.30;;
7205;SDS011;3644;53.480;10.004;2023-04-25T14:57:12;10.30;;;2.17;;
7205;SDS011;3644;53.480;10.004;2023-04-25T14:59:38;13.40;;;4.17;;
7205;SDS011;3644;53.480;10.004;2023-04-25T15:02:03;4.23;;;2.10;;
7205;SDS011;3644;53.480;10.004;2023-04-25T15:04:29;10.83;;;1.97;;
7205;SDS011;3644;53.480;10.004;2023-04-25T15:06:54;14.83;;;1.57;;